sensor_id;sensor_type;location;lat;lon;timestamp;P1;durP1;ratioP1;P2;durP2;ratioP2
25249;SDS011;13201;51.148;13.738;2023-05-21T00:00:49;24.85;;;14.55;;
25249;SDS011;13201;51.148;13.738;2023-05-21T00:03:15;22.75;;;14.52;;
25249;SDS011;13201;51.148;13.738;2023-05-21T00:05:42;24.97;;;14.70;;
25249;SDS011;13201;51.148;13.738;2023-05-21T00:08:11;24.65;;;14.70;;
25249;SDS011;13201;51.148;13.738;2023-05-21T00:10:37;22.13;;;13.85;;
25249;SDS011;13201;51.148;13.738;2023-05-21T00:13:03;23.38;;;14.25;;
25249;SDS011;13201;51.148;13.738;2023-05-21T00:15:29;21.88;;;14.27;;
25249;SDS011;13201;51.148;13.738;2023-05-21T00:17:54;24.52;;;14.57;;
25249;SDS011;13201;51.148;13.738;2023-05-21T00:20:20;25.10;;;14.35;;
25249;SDS011;13201;51.148;13.738;2023-05-21T00:22:47;21.90;;;14.30;;
25249;SDS011;13201;51.148;13.738;2023-05-21T00:25:13;23.52;;;13.85;;
25249;SDS011;13201;51.148;13.738;2023-05-21T00:27:38;22.30;;;13.82;;
25249;SDS011;13201;51.148;13.738;2023-05-21T00:30:04;22.52;;;13.68;;
25249;SDS011;13201;51.148;13.738;2023-05-21T00:32:30;22.75;;;13.95;;
25249;SDS011;13201;51.148;13.738;2023-05-21T00:34:56;26.55;;;14.77;;
25249;SDS011;13201;51.148;13.738;2023-05-21T00:37:22;23.02;;;13.90;;
25249;SDS011;13201;51.148;13.738;2023-05-21T00:39:48;23.85;;;14.52;;
25249;SDS011;13201;51.148;13.738;2023-05-21T00:42:14;26.30;;;14.52;;
25249;SDS011;13201;51.148;13.738;2023-05-21T00:44:45;23.80;;;14.77;;
25249;SDS011;13201;51.148;13.738;2023-05-21T00:47:11;23.33;;;14.40;;
25249;SDS011;13201;51.148;13.738;2023-05-21T00:52:03;23.70;;;14.00;;
25249;SDS011;13201;51.148;13.738;2023-05-21T00:54:30;22.35;;;13.82;;
25249;SDS011;13201;51.148;13.738;2023-05-21T00:56:56;24.40;;;14.57;;
25249;SDS011;13201;51.148;13.738;2023-05-21T00:59:23;25.38;;;15.07;;
25249;SDS011;13201;51.148;13.738;2023-05-21T01:01:49;23.70;;;14.67;;
25249;SDS011;13201;51.148;13.738;2023-05-21T01:04:21;22.77;;;13.93;;
25249;SDS011;13201;51.148;13.738;2023-05-21T01:30:16;25.92;;;14.68;;
25249;SDS011;13201;51.148;13.738;2023-05-21T01:35:34;26.30;;;15.48;;
25249;SDS011;13201;51.148;13.738;2023-05-21T01:43:30;27.25;;;15.23;;
25249;SDS011;13201;51.148;13.738;2023-05-21T01:45:58;30.35;;;16.85;;
25249;SDS011;13201;51.148;13.738;2023-05-21T01:48:28;29.83;;;16.65;;
25249;SDS011;13201;51.148;13.738;2023-05-21T01:50:56;26.42;;;15.63;;
25249;SDS011;13201;51.148;13.738;2023-05-21T01:53:24;26.45;;;15.60;;
25249;SDS011;13201;51.148;13.738;2023-05-21T01:55:50;25.98;;;14.82;;
25249;SDS011;13201;51.148;13.738;2023-05-21T01:58:16;23.10;;;14.48;;
25249;SDS011;13201;51.148;13.738;2023-05-21T02:00:42;25.52;;;14.48;;
25249;SDS011;13201;51.148;13.738;2023-05-21T02:05:35;27.17;;;14.53;;
25249;SDS011;13201;51.148;13.738;2023-05-21T02:08:01;25.25;;;14.43;;
25249;SDS011;13201;51.148;13.738;2023-05-21T02:10:27;25.25;;;14.20;;
25249;SDS011;13201;51.148;13.738;2023-05-21T02:12:52;22.40;;;14.00;;
25249;SDS011;13201;51.148;13.738;2023-05-21T02:15:18;27.70;;;14.73;;
25249;SDS011;13201;51.148;13.738;2023-05-21T02:17:44;24.35;;;14.75;;
25249;SDS011;13201;51.148;13.738;2023-05-21T02:20:10;24.35;;;15.32;;
25249;SDS011;13201;51.148;13.738;2023-05-21T02:22:41;26.00;;;14.60;;
25249;SDS011;13201;51.148;13.738;2023-05-21T02:25:09;28.90;;;15.70;;
25249;SDS011;13201;51.148;13.738;2023-05-21T02:30:11;24.87;;;14.67;;
25249;SDS011;13201;51.148;13.738;2023-05-21T02:32:39;23.33;;;14.55;;
25249;SDS011;13201;51.148;13.738;2023-05-21T02:35:09;28.13;;;14.98;;
25249;SDS011;13201;51.148;13.738;2023-05-21T02:37:36;24.40;;;14.85;;
25249;SDS011;13201;51.148;13.738;2023-05-21T02:40:04;26.05;;;14.63;;
25249;SDS011;13201;51.148;13.738;2023-05-21T02:44:57;27.33;;;14.97;;
25249;SDS011;13201;51.148;13.738;2023-05-21T02:47:22;26.77;;;14.40;;
25249;SDS011;13201;51.148;13.738;2023-05-21T02:49:49;22.65;;;14.75;;
25249;SDS011;13201;51.148;13.738;2023-05-21T02:52:16;25.88;;;14.20;;
25249;SDS011;13201;51.148;13.738;2023-05-21T02:54:42;23.10;;;13.80;;
25249;SDS011;13201;51.148;13.738;2023-05-21T02:57:08;24.88;;;14.27;;
25249;SDS011;13201;51.148;13.738;2023-05-21T02:59:34;25.25;;;13.68;;
25249;SDS011;13201;51.148;13.738;2023-05-21T03:02:00;23.40;;;13.27;;
25249;SDS011;13201;51.148;13.738;2023-05-21T03:04:26;28.05;;;14.90;;
25249;SDS011;13201;51.148;13.738;2023-05-21T03:06:52;23.77;;;13.80;;
25249;SDS011;13201;51.148;13.738;2023-05-21T03:11:48;25.02;;;14.10;;
25249;SDS011;13201;51.148;13.738;2023-05-21T03:14:14;24.30;;;13.93;;
25249;SDS011;13201;51.148;13.738;2023-05-21T03:16:40;24.33;;;13.60;;
25249;SDS011;13201;51.148;13.738;2023-05-21T03:19:07;26.52;;;15.20;;
25249;SDS011;13201;51.148;13.738;2023-05-21T03:21:34;25.95;;;15.13;;
25249;SDS011;13201;51.148;13.738;2023-05-21T03:24:00;25.88;;;15.40;;
25249;SDS011;13201;51.148;13.738;2023-05-21T03:26:26;26.55;;;15.35;;
25249;SDS011;13201;51.148;13.738;2023-05-21T03:28:53;25.42;;;14.68;;
25249;SDS011;13201;51.148;13.738;2023-05-21T03:31:19;25.65;;;14.55;;
25249;SDS011;13201;51.148;13.738;2023-05-21T03:33:45;25.33;;;15.65;;
25249;SDS011;13201;51.148;13.738;2023-05-21T03:36:11;25.20;;;14.75;;
25249;SDS011;13201;51.148;13.738;2023-05-21T03:38:37;33.88;;;15.85;;
25249;SDS011;13201;51.148;13.738;2023-05-21T03:41:03;24.08;;;14.32;;
25249;SDS011;13201;51.148;13.738;2023-05-21T03:43:29;28.58;;;14.52;;
25249;SDS011;13201;51.148;13.738;2023-05-21T03:45:54;27.67;;;15.07;;
25249;SDS011;13201;51.148;13.738;2023-05-21T03:48:20;26.00;;;14.85;;
25249;SDS011;13201;51.148;13.738;2023-05-21T03:50:46;25.88;;;14.82;;
25249;SDS011;13201;51.148;13.738;2023-05-21T03:53:11;24.50;;;14.90;;
25249;SDS011;13201;51.148;13.738;2023-05-21T03:55:37;28.33;;;15.67;;
25249;SDS011;13201;51.148;13.738;2023-05-21T03:58:03;23.58;;;14.13;;
25249;SDS011;13201;51.148;13.738;2023-05-21T04:00:29;24.25;;;14.55;;
25249;SDS011;13201;51.148;13.738;2023-05-21T04:02:56;23.92;;;14.57;;
25249;SDS011;13201;51.148;13.738;2023-05-21T04:05:22;23.70;;;14.60;;
25249;SDS011;13201;51.148;13.738;2023-05-21T04:07:48;27.73;;;15.57;;
25249;SDS011;13201;51.148;13.738;2023-05-21T04:10:14;27.15;;;16.23;;
25249;SDS011;13201;51.148;13.738;2023-05-21T04:12:40;32.22;;;17.25;;
25249;SDS011;13201;51.148;13.738;2023-05-21T04:15:06;35.28;;;19.73;;
25249;SDS011;13201;51.148;13.738;2023-05-21T04:17:32;28.53;;;17.47;;
25249;SDS011;13201;51.148;13.738;2023-05-21T04:22:24;27.57;;;16.00;;
25249;SDS011;13201;51.148;13.738;2023-05-21T04:24:54;27.00;;;15.67;;
25249;SDS011;13201;51.148;13.738;2023-05-21T04:27:22;24.60;;;14.88;;
25249;SDS011;13201;51.148;13.738;2023-05-21T04:29:49;25.08;;;15.07;;
25249;SDS011;13201;51.148;13.738;2023-05-21T04:32:15;27.33;;;15.35;;
25249;SDS011;13201;51.148;13.738;2023-05-21T04:37:07;28.50;;;15.47;;
25249;SDS011;13201;51.148;13.738;2023-05-21T04:39:34;27.92;;;15.32;;
25249;SDS011;13201;51.148;13.738;2023-05-21T04:42:00;26.23;;;15.87;;
25249;SDS011;13201;51.148;13.738;2023-05-21T04:44:27;26.05;;;15.13;;
25249;SDS011;13201;51.148;13.738;2023-05-21T04:46:53;24.70;;;14.57;;
25249;SDS011;13201;51.148;13.738;2023-05-21T04:49:19;25.35;;;15.43;;
25249;SDS011;13201;51.148;13.738;2023-05-21T04:51:45;28.80;;;15.10;;
25249;SDS011;13201;51.148;13.738;2023-05-21T04:54:11;26.55;;;15.02;;
25249;SDS011;13201;51.148;13.738;2023-05-21T04:56:37;28.65;;;16.65;;
25249;SDS011;13201;51.148;13.738;2023-05-21T04:59:02;30.73;;;16.83;;
25249;SDS011;13201;51.148;13.738;2023-05-21T05:01:28;28.15;;;16.52;;
25249;SDS011;13201;51.148;13.738;2023-05-21T05:03:56;28.25;;;16.45;;
25249;SDS011;13201;51.148;13.738;2023-05-21T05:06:22;24.38;;;14.90;;
25249;SDS011;13201;51.148;13.738;2023-05-21T05:08:50;24.67;;;14.70;;
25249;SDS011;13201;51.148;13.738;2023-05-21T05:11:15;23.73;;;14.02;;
25249;SDS011;13201;51.148;13.738;2023-05-21T05:13:41;24.90;;;13.90;;
25249;SDS011;13201;51.148;13.738;2023-05-21T05:16:07;24.40;;;14.73;;
25249;SDS011;13201;51.148;13.738;2023-05-21T05:18:33;26.23;;;14.13;;
25249;SDS011;13201;51.148;13.738;2023-05-21T05:20:59;16.33;;;10.23;;
25249;SDS011;13201;51.148;13.738;2023-05-21T05:23:25;24.03;;;14.70;;
25249;SDS011;13201;51.148;13.738;2023-05-21T05:25:51;23.52;;;13.63;;
25249;SDS011;13201;51.148;13.738;2023-05-21T05:28:16;25.17;;;15.70;;
25249;SDS011;13201;51.148;13.738;2023-05-21T05:30:42;22.88;;;14.25;;
25249;SDS011;13201;51.148;13.738;2023-05-21T05:33:08;24.95;;;13.65;;
25249;SDS011;13201;51.148;13.738;2023-05-21T05:35:34;21.15;;;13.82;;
25249;SDS011;13201;51.148;13.738;2023-05-21T05:38:00;23.03;;;14.13;;
25249;SDS011;13201;51.148;13.738;2023-05-21T05:40:25;20.65;;;13.75;;
25249;SDS011;13201;51.148;13.738;2023-05-21T05:42:51;22.95;;;13.88;;
25249;SDS011;13201;51.148;13.738;2023-05-21T05:45:17;23.90;;;13.85;;
25249;SDS011;13201;51.148;13.738;2023-05-21T05:47:44;21.27;;;13.90;;
25249;SDS011;13201;51.148;13.738;2023-05-21T05:50:10;20.80;;;13.52;;
25249;SDS011;13201;51.148;13.738;2023-05-21T05:52:35;20.98;;;12.93;;
25249;SDS011;13201;51.148;13.738;2023-05-21T05:55:01;22.17;;;13.85;;
25249;SDS011;13201;51.148;13.738;2023-05-21T05:57:27;20.15;;;12.95;;
25249;SDS011;13201;51.148;13.738;2023-05-21T05:59:53;21.00;;;12.90;;
25249;SDS011;13201;51.148;13.738;2023-05-21T06:02:19;19.15;;;12.82;;
25249;SDS011;13201;51.148;13.738;2023-05-21T06:04:44;21.42;;;12.93;;
25249;SDS011;13201;51.148;13.738;2023-05-21T06:07:10;21.52;;;13.18;;
25249;SDS011;13201;51.148;13.738;2023-05-21T06:09:36;21.05;;;12.90;;
25249;SDS011;13201;51.148;13.738;2023-05-21T06:12:03;18.15;;;12.30;;
25249;SDS011;13201;51.148;13.738;2023-05-21T06:14:32;21.17;;;13.05;;
25249;SDS011;13201;51.148;13.738;2023-05-21T06:16:57;22.15;;;12.57;;
25249;SDS011;13201;51.148;13.738;2023-05-21T06:19:23;18.85;;;12.57;;
25249;SDS011;13201;51.148;13.738;2023-05-21T06:21:48;19.17;;;12.65;;
25249;SDS011;13201;51.148;13.738;2023-05-21T06:24:14;18.75;;;12.18;;
25249;SDS011;13201;51.148;13.738;2023-05-21T06:26:40;18.85;;;13.00;;
25249;SDS011;13201;51.148;13.738;2023-05-21T06:29:06;21.80;;;13.48;;
25249;SDS011;13201;51.148;13.738;2023-05-21T06:31:32;19.02;;;12.50;;
25249;SDS011;13201;51.148;13.738;2023-05-21T06:33:58;49.67;;;28.05;;
25249;SDS011;13201;51.148;13.738;2023-05-21T06:36:24;21.37;;;14.07;;
25249;SDS011;13201;51.148;13.738;2023-05-21T06:38:54;20.23;;;12.75;;
25249;SDS011;13201;51.148;13.738;2023-05-21T06:41:21;20.88;;;13.10;;
25249;SDS011;13201;51.148;13.738;2023-05-21T06:43:46;19.92;;;11.85;;
25249;SDS011;13201;51.148;13.738;2023-05-21T06:46:12;19.90;;;12.80;;
25249;SDS011;13201;51.148;13.738;2023-05-21T06:48:38;17.67;;;11.73;;
25249;SDS011;13201;51.148;13.738;2023-05-21T06:51:04;18.75;;;11.75;;
25249;SDS011;13201;51.148;13.738;2023-05-21T06:53:30;19.08;;;12.20;;
25249;SDS011;13201;51.148;13.738;2023-05-21T06:55:55;18.38;;;11.77;;
25249;SDS011;13201;51.148;13.738;2023-05-21T06:58:21;18.38;;;12.65;;
25249;SDS011;13201;51.148;13.738;2023-05-21T07:00:47;18.17;;;11.95;;
25249;SDS011;13201;51.148;13.738;2023-05-21T07:03:13;22.33;;;12.27;;
25249;SDS011;13201;51.148;13.738;2023-05-21T07:05:39;18.70;;;12.63;;
25249;SDS011;13201;51.148;13.738;2023-05-21T07:08:04;24.40;;;15.57;;
25249;SDS011;13201;51.148;13.738;2023-05-21T07:10:30;19.83;;;13.20;;
25249;SDS011;13201;51.148;13.738;2023-05-21T07:12:56;19.60;;;12.65;;
25249;SDS011;13201;51.148;13.738;2023-05-21T07:15:22;19.20;;;13.02;;
25249;SDS011;13201;51.148;13.738;2023-05-21T07:17:47;20.00;;;12.65;;
25249;SDS011;13201;51.148;13.738;2023-05-21T07:20:13;20.85;;;13.27;;
25249;SDS011;13201;51.148;13.738;2023-05-21T07:22:39;21.60;;;13.68;;
25249;SDS011;13201;51.148;13.738;2023-05-21T07:25:07;21.77;;;14.18;;
25249;SDS011;13201;51.148;13.738;2023-05-21T07:27:33;21.67;;;13.20;;
25249;SDS011;13201;51.148;13.738;2023-05-21T07:29:58;20.48;;;14.00;;
25249;SDS011;13201;51.148;13.738;2023-05-21T07:32:24;24.92;;;13.55;;
25249;SDS011;13201;51.148;13.738;2023-05-21T07:34:52;20.85;;;13.25;;
25249;SDS011;13201;51.148;13.738;2023-05-21T07:37:19;19.83;;;13.47;;
25249;SDS011;13201;51.148;13.738;2023-05-21T07:39:45;17.20;;;12.10;;
25249;SDS011;13201;51.148;13.738;2023-05-21T07:42:10;16.45;;;10.70;;
25249;SDS011;13201;51.148;13.738;2023-05-21T07:44:36;16.17;;;11.20;;
25249;SDS011;13201;51.148;13.738;2023-05-21T07:47:02;16.20;;;11.30;;
25249;SDS011;13201;51.148;13.738;2023-05-21T07:49:28;17.73;;;11.23;;
25249;SDS011;13201;51.148;13.738;2023-05-21T07:51:53;16.95;;;10.77;;
25249;SDS011;13201;51.148;13.738;2023-05-21T07:54:19;18.67;;;11.87;;
25249;SDS011;13201;51.148;13.738;2023-05-21T07:56:45;17.45;;;11.20;;
25249;SDS011;13201;51.148;13.738;2023-05-21T07:59:12;16.05;;;11.40;;
25249;SDS011;13201;51.148;13.738;2023-05-21T08:01:38;16.92;;;11.88;;
25249;SDS011;13201;51.148;13.738;2023-05-21T08:04:05;15.18;;;10.98;;
25249;SDS011;13201;51.148;13.738;2023-05-21T08:06:31;14.32;;;10.80;;
25249;SDS011;13201;51.148;13.738;2023-05-21T08:09:01;19.42;;;11.50;;
25249;SDS011;13201;51.148;13.738;2023-05-21T08:11:27;20.97;;;14.03;;
25249;SDS011;13201;51.148;13.738;2023-05-21T08:13:53;24.02;;;14.63;;
25249;SDS011;13201;51.148;13.738;2023-05-21T08:16:19;19.03;;;12.37;;
25249;SDS011;13201;51.148;13.738;2023-05-21T08:18:47;15.38;;;10.43;;
25249;SDS011;13201;51.148;13.738;2023-05-21T08:21:13;19.83;;;11.05;;
25249;SDS011;13201;51.148;13.738;2023-05-21T08:23:38;18.92;;;10.68;;
25249;SDS011;13201;51.148;13.738;2023-05-21T08:26:04;19.42;;;10.90;;
25249;SDS011;13201;51.148;13.738;2023-05-21T08:28:31;15.20;;;10.80;;
25249;SDS011;13201;51.148;13.738;2023-05-21T08:30:56;16.70;;;10.70;;
25249;SDS011;13201;51.148;13.738;2023-05-21T08:33:22;15.70;;;10.65;;
25249;SDS011;13201;51.148;13.738;2023-05-21T08:35:48;16.70;;;10.57;;
25249;SDS011;13201;51.148;13.738;2023-05-21T08:38:14;14.25;;;10.52;;
25249;SDS011;13201;51.148;13.738;2023-05-21T08:40:41;16.58;;;11.25;;
25249;SDS011;13201;51.148;13.738;2023-05-21T08:43:06;16.60;;;11.38;;
25249;SDS011;13201;51.148;13.738;2023-05-21T08:45:37;19.20;;;10.75;;
25249;SDS011;13201;51.148;13.738;2023-05-21T08:48:07;17.15;;;11.10;;
25249;SDS011;13201;51.148;13.738;2023-05-21T08:50:35;18.83;;;12.00;;
25249;SDS011;13201;51.148;13.738;2023-05-21T08:53:01;17.48;;;11.90;;
25249;SDS011;13201;51.148;13.738;2023-05-21T08:55:27;21.03;;;12.13;;
25249;SDS011;13201;51.148;13.738;2023-05-21T08:57:55;17.13;;;11.50;;
25249;SDS011;13201;51.148;13.738;2023-05-21T09:00:21;21.95;;;13.23;;
25249;SDS011;13201;51.148;13.738;2023-05-21T09:02:46;25.92;;;13.52;;
25249;SDS011;13201;51.148;13.738;2023-05-21T09:05:13;17.33;;;13.45;;
25249;SDS011;13201;51.148;13.738;2023-05-21T09:07:47;19.67;;;13.27;;
25249;SDS011;13201;51.148;13.738;2023-05-21T09:10:22;19.08;;;13.50;;
25249;SDS011;13201;51.148;13.738;2023-05-21T09:12:53;19.90;;;13.75;;
25249;SDS011;13201;51.148;13.738;2023-05-21T09:15:19;22.30;;;14.10;;
25249;SDS011;13201;51.148;13.738;2023-05-21T09:17:45;21.27;;;15.27;;
25249;SDS011;13201;51.148;13.738;2023-05-21T09:20:12;19.55;;;13.38;;
25249;SDS011;13201;51.148;13.738;2023-05-21T09:25:11;20.40;;;13.75;;
25249;SDS011;13201;51.148;13.738;2023-05-21T09:27:38;23.27;;;13.57;;
25249;SDS011;13201;51.148;13.738;2023-05-21T09:30:06;21.25;;;13.93;;
25249;SDS011;13201;51.148;13.738;2023-05-21T09:32:38;24.33;;;14.27;;
25249;SDS011;13201;51.148;13.738;2023-05-21T09:35:13;20.80;;;13.57;;
25249;SDS011;13201;51.148;13.738;2023-05-21T09:37:46;19.37;;;11.97;;
25249;SDS011;13201;51.148;13.738;2023-05-21T09:42:45;19.13;;;13.40;;
25249;SDS011;13201;51.148;13.738;2023-05-21T09:45:21;20.25;;;12.57;;
25249;SDS011;13201;51.148;13.738;2023-05-21T09:47:48;17.42;;;12.02;;
25249;SDS011;13201;51.148;13.738;2023-05-21T09:52:45;15.40;;;10.98;;
25249;SDS011;13201;51.148;13.738;2023-05-21T09:55:12;15.88;;;11.13;;
25249;SDS011;13201;51.148;13.738;2023-05-21T09:57:39;16.20;;;11.25;;
25249;SDS011;13201;51.148;13.738;2023-05-21T10:00:07;16.90;;;11.82;;
25249;SDS011;13201;51.148;13.738;2023-05-21T10:02:34;15.82;;;11.52;;
25249;SDS011;13201;51.148;13.738;2023-05-21T10:05:04;16.98;;;11.45;;
25249;SDS011;13201;51.148;13.738;2023-05-21T10:07:34;15.43;;;11.85;;
25249;SDS011;13201;51.148;13.738;2023-05-21T10:10:00;18.17;;;11.00;;
25249;SDS011;13201;51.148;13.738;2023-05-21T10:12:29;16.40;;;12.02;;
25249;SDS011;13201;51.148;13.738;2023-05-21T10:15:00;17.33;;;11.50;;
25249;SDS011;13201;51.148;13.738;2023-05-21T10:17:27;18.05;;;12.70;;
25249;SDS011;13201;51.148;13.738;2023-05-21T10:19:57;28.85;;;18.08;;
25249;SDS011;13201;51.148;13.738;2023-05-21T10:22:29;20.38;;;12.90;;
25249;SDS011;13201;51.148;13.738;2023-05-21T10:24:55;21.73;;;13.07;;
25249;SDS011;13201;51.148;13.738;2023-05-21T10:27:22;16.92;;;12.77;;
25249;SDS011;13201;51.148;13.738;2023-05-21T10:29:48;19.33;;;12.93;;
25249;SDS011;13201;51.148;13.738;2023-05-21T10:32:15;17.30;;;12.63;;
25249;SDS011;13201;51.148;13.738;2023-05-21T10:34:42;20.90;;;13.10;;
25249;SDS011;13201;51.148;13.738;2023-05-21T10:37:08;19.35;;;13.98;;
25249;SDS011;13201;51.148;13.738;2023-05-21T10:39:34;20.27;;;13.10;;
25249;SDS011;13201;51.148;13.738;2023-05-21T10:42:15;21.40;;;14.10;;
25249;SDS011;13201;51.148;13.738;2023-05-21T10:53:21;19.27;;;13.43;;
25249;SDS011;13201;51.148;13.738;2023-05-21T10:56:23;21.58;;;13.23;;
25249;SDS011;13201;51.148;13.738;2023-05-21T10:59:09;18.40;;;12.82;;
25249;SDS011;13201;51.148;13.738;2023-05-21T11:01:55;18.75;;;12.85;;
25249;SDS011;13201;51.148;13.738;2023-05-21T11:04:22;16.92;;;12.95;;
25249;SDS011;13201;51.148;13.738;2023-05-21T11:06:50;19.08;;;11.77;;
25249;SDS011;13201;51.148;13.738;2023-05-21T11:09:16;17.83;;;12.70;;
25249;SDS011;13201;51.148;13.738;2023-05-21T11:11:46;15.73;;;11.53;;
25249;SDS011;13201;51.148;13.738;2023-05-21T11:14:25;17.98;;;11.98;;
25249;SDS011;13201;51.148;13.738;2023-05-21T11:16:51;16.70;;;11.57;;
25249;SDS011;13201;51.148;13.738;2023-05-21T11:19:17;18.83;;;11.67;;
25249;SDS011;13201;51.148;13.738;2023-05-21T11:21:42;14.93;;;10.93;;
25249;SDS011;13201;51.148;13.738;2023-05-21T11:24:18;16.98;;;10.93;;
25249;SDS011;13201;51.148;13.738;2023-05-21T11:29:13;18.35;;;12.57;;
25249;SDS011;13201;51.148;13.738;2023-05-21T11:31:44;20.27;;;12.40;;
25249;SDS011;13201;51.148;13.738;2023-05-21T11:37:38;15.18;;;9.80;;
25249;SDS011;13201;51.148;13.738;2023-05-21T11:39:50;10.95;;;7.15;;
25249;SDS011;13201;51.148;13.738;2023-05-21T11:44:57;11.95;;;9.43;;
25249;SDS011;13201;51.148;13.738;2023-05-21T11:47:24;14.65;;;10.05;;
25249;SDS011;13201;51.148;13.738;2023-05-21T11:49:51;15.73;;;10.82;;
25249;SDS011;13201;51.148;13.738;2023-05-21T11:52:17;13.85;;;10.10;;
25249;SDS011;13201;51.148;13.738;2023-05-21T11:54:47;14.40;;;10.10;;
25249;SDS011;13201;51.148;13.738;2023-05-21T11:57:15;13.23;;;10.13;;
25249;SDS011;13201;51.148;13.738;2023-05-21T11:59:45;13.25;;;9.82;;
25249;SDS011;13201;51.148;13.738;2023-05-21T12:04:41;15.57;;;10.82;;
25249;SDS011;13201;51.148;13.738;2023-05-21T12:07:07;21.13;;;12.82;;
25249;SDS011;13201;51.148;13.738;2023-05-21T12:09:41;18.85;;;12.43;;
25249;SDS011;13201;51.148;13.738;2023-05-21T12:12:13;9.95;;;7.28;;
25249;SDS011;13201;51.148;13.738;2023-05-21T12:14:46;9.70;;;7.63;;
25249;SDS011;13201;51.148;13.738;2023-05-21T12:17:17;11.00;;;7.78;;
25249;SDS011;13201;51.148;13.738;2023-05-21T12:19:47;12.05;;;7.70;;
25249;SDS011;13201;51.148;13.738;2023-05-21T12:22:14;9.57;;;7.32;;
25249;SDS011;13201;51.148;13.738;2023-05-21T12:24:40;12.53;;;7.80;;
25249;SDS011;13201;51.148;13.738;2023-05-21T12:27:07;13.93;;;8.10;;
25249;SDS011;13201;51.148;13.738;2023-05-21T12:32:07;11.63;;;8.50;;
25249;SDS011;13201;51.148;13.738;2023-05-21T12:37:19;10.27;;;7.35;;
25249;SDS011;13201;51.148;13.738;2023-05-21T12:39:47;9.95;;;6.28;;
25249;SDS011;13201;51.148;13.738;2023-05-21T12:42:15;10.15;;;6.97;;
25249;SDS011;13201;51.148;13.738;2023-05-21T12:44:45;8.43;;;6.78;;
25249;SDS011;13201;51.148;13.738;2023-05-21T12:47:11;9.90;;;6.72;;
25249;SDS011;13201;51.148;13.738;2023-05-21T12:54:37;10.45;;;7.25;;
25249;SDS011;13201;51.148;13.738;2023-05-21T12:57:04;13.23;;;8.07;;
25249;SDS011;13201;51.148;13.738;2023-05-21T13:04:45;11.10;;;7.80;;
25249;SDS011;13201;51.148;13.738;2023-05-21T13:07:11;12.02;;;8.45;;
25249;SDS011;13201;51.148;13.738;2023-05-21T13:09:37;16.67;;;9.85;;
25249;SDS011;13201;51.148;13.738;2023-05-21T13:12:03;13.57;;;9.20;;
25249;SDS011;13201;51.148;13.738;2023-05-21T13:14:29;11.63;;;9.67;;
25249;SDS011;13201;51.148;13.738;2023-05-21T13:16:55;12.57;;;8.93;;
25249;SDS011;13201;51.148;13.738;2023-05-21T13:19:21;19.08;;;9.85;;
25249;SDS011;13201;51.148;13.738;2023-05-21T13:21:47;15.23;;;9.27;;
25249;SDS011;13201;51.148;13.738;2023-05-21T13:24:13;13.57;;;8.53;;
25249;SDS011;13201;51.148;13.738;2023-05-21T13:26:38;12.67;;;9.17;;
25249;SDS011;13201;51.148;13.738;2023-05-21T13:29:04;11.43;;;8.87;;
25249;SDS011;13201;51.148;13.738;2023-05-21T13:31:30;12.67;;;9.43;;
25249;SDS011;13201;51.148;13.738;2023-05-21T13:33:55;14.43;;;10.23;;
25249;SDS011;13201;51.148;13.738;2023-05-21T13:36:21;21.13;;;13.53;;
25249;SDS011;13201;51.148;13.738;2023-05-21T13:38:47;10.87;;;8.80;;
25249;SDS011;13201;51.148;13.738;2023-05-21T13:41:12;15.80;;;9.37;;
25249;SDS011;13201;51.148;13.738;2023-05-21T13:43:40;14.37;;;8.70;;
25249;SDS011;13201;51.148;13.738;2023-05-21T13:46:06;14.93;;;9.07;;
25249;SDS011;13201;51.148;13.738;2023-05-21T13:48:32;11.32;;;7.95;;
25249;SDS011;13201;51.148;13.738;2023-05-21T13:50:58;12.40;;;6.27;;
25249;SDS011;13201;51.148;13.738;2023-05-21T13:53:24;7.67;;;5.30;;
25249;SDS011;13201;51.148;13.738;2023-05-21T13:55:49;5.80;;;4.43;;
25249;SDS011;13201;51.148;13.738;2023-05-21T13:58:15;5.93;;;4.30;;
25249;SDS011;13201;51.148;13.738;2023-05-21T14:00:41;5.40;;;4.37;;
25249;SDS011;13201;51.148;13.738;2023-05-21T14:03:07;5.20;;;4.40;;
25249;SDS011;13201;51.148;13.738;2023-05-21T14:05:34;6.07;;;4.30;;
25249;SDS011;13201;51.148;13.738;2023-05-21T14:08:00;7.10;;;4.37;;
25249;SDS011;13201;51.148;13.738;2023-05-21T14:10:26;8.32;;;4.80;;
25249;SDS011;13201;51.148;13.738;2023-05-21T14:12:52;7.40;;;5.43;;
25249;SDS011;13201;51.148;13.738;2023-05-21T14:15:17;8.40;;;5.57;;
25249;SDS011;13201;51.148;13.738;2023-05-21T14:17:43;8.20;;;4.90;;
25249;SDS011;13201;51.148;13.738;2023-05-21T14:20:09;7.00;;;4.90;;
25249;SDS011;13201;51.148;13.738;2023-05-21T14:22:35;6.10;;;4.55;;
25249;SDS011;13201;51.148;13.738;2023-05-21T14:25:01;7.47;;;4.68;;
25249;SDS011;13201;51.148;13.738;2023-05-21T14:27:27;6.93;;;5.10;;
25249;SDS011;13201;51.148;13.738;2023-05-21T14:29:53;7.00;;;5.23;;
25249;SDS011;13201;51.148;13.738;2023-05-21T14:32:18;9.23;;;6.17;;
25249;SDS011;13201;51.148;13.738;2023-05-21T14:34:44;12.40;;;8.37;;
25249;SDS011;13201;51.148;13.738;2023-05-21T14:37:09;8.77;;;6.23;;
25249;SDS011;13201;51.148;13.738;2023-05-21T14:39:35;8.00;;;6.20;;
25249;SDS011;13201;51.148;13.738;2023-05-21T14:42:04;9.67;;;6.87;;
25249;SDS011;13201;51.148;13.738;2023-05-21T14:44:29;18.33;;;7.10;;
25249;SDS011;13201;51.148;13.738;2023-05-21T14:46:56;12.43;;;8.30;;
25249;SDS011;13201;51.148;13.738;2023-05-21T14:49:21;11.40;;;7.97;;
25249;SDS011;13201;51.148;13.738;2023-05-21T14:51:47;11.17;;;7.40;;
25249;SDS011;13201;51.148;13.738;2023-05-21T14:54:13;17.67;;;7.50;;
25249;SDS011;13201;51.148;13.738;2023-05-21T14:56:38;12.80;;;6.93;;
25249;SDS011;13201;51.148;13.738;2023-05-21T14:59:04;12.73;;;6.30;;
25249;SDS011;13201;51.148;13.738;2023-05-21T15:01:30;11.65;;;6.55;;
25249;SDS011;13201;51.148;13.738;2023-05-21T15:03:56;10.10;;;6.27;;
25249;SDS011;13201;51.148;13.738;2023-05-21T15:06:22;9.50;;;6.63;;
25249;SDS011;13201;51.148;13.738;2023-05-21T15:08:48;8.65;;;6.65;;
25249;SDS011;13201;51.148;13.738;2023-05-21T15:11:13;10.23;;;6.47;;
25249;SDS011;13201;51.148;13.738;2023-05-21T15:13:39;9.20;;;6.23;;
25249;SDS011;13201;51.148;13.738;2023-05-21T15:16:05;7.57;;;6.23;;
25249;SDS011;13201;51.148;13.738;2023-05-21T15:18:30;8.77;;;7.00;;
25249;SDS011;13201;51.148;13.738;2023-05-21T15:20:56;9.27;;;6.10;;
25249;SDS011;13201;51.148;13.738;2023-05-21T15:23:23;9.60;;;7.22;;
25249;SDS011;13201;51.148;13.738;2023-05-21T15:25:49;9.07;;;6.50;;
25249;SDS011;13201;51.148;13.738;2023-05-21T15:28:14;8.00;;;6.63;;
25249;SDS011;13201;51.148;13.738;2023-05-21T15:30:40;11.07;;;7.00;;
25249;SDS011;13201;51.148;13.738;2023-05-21T15:33:06;9.73;;;7.13;;
25249;SDS011;13201;51.148;13.738;2023-05-21T15:35:31;10.37;;;7.73;;
25249;SDS011;13201;51.148;13.738;2023-05-21T15:37:58;12.27;;;8.50;;
25249;SDS011;13201;51.148;13.738;2023-05-21T15:40:24;9.10;;;7.30;;
25249;SDS011;13201;51.148;13.738;2023-05-21T15:42:50;11.73;;;6.57;;